Ty Lotus — DSNU7 — position and weather

sailwx.info

Track history (hours):
 
Tides and Currents Weather Stations Pressure Air Temp Water Temp Dewpoint Dewpoint Depression Visibility Wind Speed Wind Dir Waves Ship Positions

Ty Lotus

Last reported at 2016-Apr-25 10:22 UTC. Time now 2016-May-06 16:51 UTC.
Position N 34°36' E 134°55'.
Warning: this ship's position is 11 days out of date.

Length 80 m; draft 5.8 m.

Type: Cargo ship. MMSI: 440324000.

Date/timePositionNaut miles runAvg speedWind from/ knotsBaromVisibWave heightAir tempDewpointWater temp
2016-Apr-25 10:22N 34°36' E 134°55'8 9.4
2016-Apr-25 09:29N 34°36' E 135°05'9 9.6
2016-Apr-25 08:32N 34°38' E 135°16'4 3.5
2016-Apr-25 07:24N 34°42' E 135°13'0 0.0
2016-Apr-25 06:30N 34°42' E 135°13'0 0.0
2016-Apr-25 05:24N 34°42' E 135°13'0 0.0
2016-Apr-25 04:30N 34°42' E 135°13'0 0.0
2016-Apr-25 03:30N 34°42' E 135°13'0 0.0
2016-Apr-25 02:30N 34°42' E 135°13'0 0.0
2016-Apr-25 01:30N 34°42' E 135°13'0 0.0
2016-Apr-25 00:22N 34°42' E 135°13'0 0.0
2016-Apr-24 23:28N 34°42' E 135°13'0 0.1
2016-Apr-24 22:33N 34°42' E 135°13'5 4.7
2016-Apr-24 21:33N 34°37' E 135°13'0 0.3
2016-Apr-24 20:33N 34°37' E 135°13'0 0.0
2016-Apr-24 19:33N 34°37' E 135°13'0 0.0
2016-Apr-24 18:33N 34°37' E 135°13'0 0.0
2016-Apr-24 17:33N 34°37' E 135°13'0 0.0
2016-Apr-24 16:33N 34°37' E 135°13'0 0.0
2016-Apr-24 15:33N 34°37' E 135°13'0 0.0
2016-Apr-24 14:33N 34°37' E 135°13'0 0.0
2016-Apr-24 13:33N 34°37' E 135°13'0 0.0
2016-Apr-24 12:33N 34°37' E 135°13'0 0.1
2016-Apr-24 11:33N 34°37' E 135°13'0 0.1
2016-Apr-24 10:33N 34°37' E 135°13'0 0.1
2016-Apr-24 09:33N 34°37' E 135°13'0 0.0
2016-Apr-24 08:32N 34°37' E 135°13'0 0.0
2016-Apr-24 07:33N 34°37' E 135°13'0 0.0
2016-Apr-24 06:33N 34°37' E 135°13'0 0.1
2016-Apr-24 05:34N 34°37' E 135°13'0 0.0
2016-Apr-24 04:33N 34°37' E 135°13'6 5.9
2016-Apr-24 03:34N 34°31' E 135°13'1010.2
2016-Apr-24 02:34N 34°24' E 135°04'1010.0
2016-Apr-24 01:33N 34°15' E 134°59'1110.7
2016-Apr-24 00:31N 34°03' E 134°60'241 5.7
2016-Apr-22 06:23N 35°07' E 139°42'810.0
2016-Apr-22 05:33N 35°15' E 139°46'9 9.4
2016-Apr-22 04:33N 35°24' E 139°42'5 4.7
2016-Apr-22 03:33N 35°28' E 139°42'0 0.0
2016-Apr-22 02:33N 35°28' E 139°42'0 0.0
2016-Apr-22 01:33N 35°28' E 139°42'0 0.0
2016-Apr-22 00:32N 35°28' E 139°42'0 0.0
2016-Apr-21 23:32N 35°28' E 139°42'0 0.0
2016-Apr-21 22:32N 35°28' E 139°42'0 0.0
2016-Apr-21 21:33N 35°28' E 139°42'0 0.0
2016-Apr-21 20:33N 35°28' E 139°42'0 0.0
2016-Apr-21 19:33N 35°28' E 139°42'0 0.0
2016-Apr-21 18:33N 35°28' E 139°42'0 0.0
2016-Apr-21 17:33N 35°28' E 139°42'0 0.0
2016-Apr-21 16:33N 35°28' E 139°42'0 0.0
2016-Apr-21 15:33N 35°28' E 139°42'0 0.0
2016-Apr-21 14:32N 35°28' E 139°42'0 0.0
2016-Apr-21 13:32N 35°28' E 139°42'0 0.0
2016-Apr-21 12:31N 35°28' E 139°42'0 0.0
2016-Apr-21 11:31N 35°28' E 139°42'0 0.0
2016-Apr-21 10:31N 35°28' E 139°42'0 0.0
2016-Apr-21 09:31N 35°28' E 139°42'0 0.0
2016-Apr-21 08:22N 35°28' E 139°42'0 0.0
2016-Apr-21 07:31N 35°28' E 139°42'0 0.0
2016-Apr-21 06:31N 35°28' E 139°42'0 0.0
2016-Apr-21 05:31N 35°28' E 139°42'0 0.0
2016-Apr-21 04:34N 35°28' E 139°42'0 0.0
2016-Apr-21 03:31N 35°28' E 139°42'0 0.0
2016-Apr-21 02:33N 35°28' E 139°42'0 0.0
2016-Apr-21 01:31N 35°28' E 139°42'0 0.0
2016-Apr-21 00:31N 35°28' E 139°42'0 0.0
2016-Apr-20 23:31N 35°28' E 139°42'0 0.0
2016-Apr-20 22:33N 35°28' E 139°42'2 2.0
2016-Apr-20 21:33N 35°27' E 139°43'0 0.0
2016-Apr-20 20:33N 35°27' E 139°43'0 0.0
2016-Apr-20 19:33N 35°27' E 139°43'0 0.0
2016-Apr-20 18:33N 35°27' E 139°43'0 0.0
2016-Apr-20 17:33N 35°27' E 139°43'0 0.0
2016-Apr-20 16:33N 35°27' E 139°43'0 0.0
2016-Apr-20 15:33N 35°27' E 139°43'0 0.0
2016-Apr-20 14:33N 35°27' E 139°43'0 0.0
2016-Apr-20 13:33N 35°27' E 139°43'0 0.0
2016-Apr-20 12:33N 35°27' E 139°43'0 0.0
2016-Apr-20 11:32N 35°27' E 139°43'0 0.0
2016-Apr-20 10:32N 35°27' E 139°43'0 0.0
2016-Apr-20 09:29N 35°27' E 139°43'0 0.0
2016-Apr-20 08:33N 35°27' E 139°43'1 0.6
2016-Apr-20 07:33N 35°26' E 139°43'6 0.4
2016-Apr-19 17:33N 35°24' E 139°50'0 0.0
2016-Apr-19 16:33N 35°24' E 139°50'0 0.0
2016-Apr-19 15:33N 35°24' E 139°50'0 0.0
2016-Apr-19 14:33N 35°24' E 139°50'0 0.1
2016-Apr-19 13:33N 35°24' E 139°50'0 0.0
2016-Apr-19 12:33N 35°24' E 139°50'0 0.0
2016-Apr-19 11:33N 35°24' E 139°50'0 0.0
2016-Apr-19 10:33N 35°24' E 139°50'0 0.1
2016-Apr-19 09:33N 35°24' E 139°50'0 0.1
2016-Apr-19 08:33N 35°24' E 139°50'0 0.0
2016-Apr-19 07:33N 35°24' E 139°50'0 0.0
2016-Apr-19 06:33N 35°24' E 139°50'0 0.0
2016-Apr-19 05:33N 35°24' E 139°50'0 0.0
2016-Apr-19 04:33N 35°24' E 139°50'0 0.0
2016-Apr-19 03:33N 35°24' E 139°50'0 0.0
2016-Apr-19 02:33N 35°24' E 139°50'1 0.8
2016-Apr-19 01:33N 35°24' E 139°49'8 7.8
2016-Apr-19 00:33N 35°17' E 139°45'10 9.5
2016-Apr-18 23:31N 35°07' E 139°45'245 8.9
2016-Apr-17 20:07N 33°59' E 135°00'5 9.7
2016-Apr-17 19:33N 34°04' E 134°60'10 9.9
2016-Apr-17 18:33N 34°14' E 134°59'9 7.7
2016-Apr-17 17:24N 34°22' E 135°04'3 0.5
2016-Apr-17 11:10N 34°22' E 135°08'0 0.0
2016-Apr-17 07:04N 34°22' E 135°08'0 0.1
2016-Apr-16 23:10N 34°21' E 135°08'0 0.0
2016-Apr-16 16:14N 34°22' E 135°08'1 1.0
2016-Apr-16 15:33N 34°22' E 135°08'9 9.6
2016-Apr-16 14:34N 34°32' E 135°05'  
Track history (hours):
 
Tides and Currents Weather Stations Pressure Air Temp Water Temp Dewpoint Dewpoint Depression Visibility Wind Speed Wind Dir Waves Ship Positions

Ty Lotus

Last reported at 2016-Apr-25 10:22 UTC. Time now 2016-May-06 16:51 UTC.
Position N 34°36' E 134°55'.
Warning: this ship's position is 11 days out of date.

Length 80 m; draft 5.8 m.

Type: Cargo ship. MMSI: 440324000.

Date/timePositionNaut miles runAvg speedWind from/ knotsBaromVisibWave heightAir tempDewpointWater temp
2016-Apr-25 10:22N 34°36' E 134°55'8 9.4
2016-Apr-25 09:29N 34°36' E 135°05'9 9.6
2016-Apr-25 08:32N 34°38' E 135°16'4 3.5
2016-Apr-25 07:24N 34°42' E 135°13'0 0.0
2016-Apr-25 06:30N 34°42' E 135°13'0 0.0
2016-Apr-25 05:24N 34°42' E 135°13'0 0.0
2016-Apr-25 04:30N 34°42' E 135°13'0 0.0
2016-Apr-25 03:30N 34°42' E 135°13'0 0.0
2016-Apr-25 02:30N 34°42' E 135°13'0 0.0
2016-Apr-25 01:30N 34°42' E 135°13'0 0.0
2016-Apr-25 00:22N 34°42' E 135°13'0 0.0
2016-Apr-24 23:28N 34°42' E 135°13'0 0.1
2016-Apr-24 22:33N 34°42' E 135°13'5 4.7
2016-Apr-24 21:33N 34°37' E 135°13'0 0.3
2016-Apr-24 20:33N 34°37' E 135°13'0 0.0
2016-Apr-24 19:33N 34°37' E 135°13'0 0.0
2016-Apr-24 18:33N 34°37' E 135°13'0 0.0
2016-Apr-24 17:33N 34°37' E 135°13'0 0.0
2016-Apr-24 16:33N 34°37' E 135°13'0 0.0
2016-Apr-24 15:33N 34°37' E 135°13'0 0.0
2016-Apr-24 14:33N 34°37' E 135°13'0 0.0
2016-Apr-24 13:33N 34°37' E 135°13'0 0.0
2016-Apr-24 12:33N 34°37' E 135°13'0 0.1
2016-Apr-24 11:33N 34°37' E 135°13'0 0.1
2016-Apr-24 10:33N 34°37' E 135°13'0 0.1
2016-Apr-24 09:33N 34°37' E 135°13'0 0.0
2016-Apr-24 08:32N 34°37' E 135°13'0 0.0
2016-Apr-24 07:33N 34°37' E 135°13'0 0.0
2016-Apr-24 06:33N 34°37' E 135°13'0 0.1
2016-Apr-24 05:34N 34°37' E 135°13'0 0.0
2016-Apr-24 04:33N 34°37' E 135°13'6 5.9
2016-Apr-24 03:34N 34°31' E 135°13'1010.2
2016-Apr-24 02:34N 34°24' E 135°04'1010.0
2016-Apr-24 01:33N 34°15' E 134°59'1110.7
2016-Apr-24 00:31N 34°03' E 134°60'241 5.7
2016-Apr-22 06:23N 35°07' E 139°42'810.0
2016-Apr-22 05:33N 35°15' E 139°46'9 9.4
2016-Apr-22 04:33N 35°24' E 139°42'5 4.7
2016-Apr-22 03:33N 35°28' E 139°42'0 0.0
2016-Apr-22 02:33N 35°28' E 139°42'0 0.0
2016-Apr-22 01:33N 35°28' E 139°42'0 0.0
2016-Apr-22 00:32N 35°28' E 139°42'0 0.0
2016-Apr-21 23:32N 35°28' E 139°42'0 0.0
2016-Apr-21 22:32N 35°28' E 139°42'0 0.0
2016-Apr-21 21:33N 35°28' E 139°42'0 0.0
2016-Apr-21 20:33N 35°28' E 139°42'0 0.0
2016-Apr-21 19:33N 35°28' E 139°42'0 0.0
2016-Apr-21 18:33N 35°28' E 139°42'0 0.0
2016-Apr-21 17:33N 35°28' E 139°42'0 0.0
2016-Apr-21 16:33N 35°28' E 139°42'0 0.0
2016-Apr-21 15:33N 35°28' E 139°42'0 0.0
2016-Apr-21 14:32N 35°28' E 139°42'0 0.0
2016-Apr-21 13:32N 35°28' E 139°42'0 0.0
2016-Apr-21 12:31N 35°28' E 139°42'0 0.0
2016-Apr-21 11:31N 35°28' E 139°42'0 0.0
2016-Apr-21 10:31N 35°28' E 139°42'0 0.0
2016-Apr-21 09:31N 35°28' E 139°42'0 0.0
2016-Apr-21 08:22N 35°28' E 139°42'0 0.0
2016-Apr-21 07:31N 35°28' E 139°42'0 0.0
2016-Apr-21 06:31N 35°28' E 139°42'0 0.0
2016-Apr-21 05:31N 35°28' E 139°42'0 0.0
2016-Apr-21 04:34N 35°28' E 139°42'0 0.0
2016-Apr-21 03:31N 35°28' E 139°42'0 0.0
2016-Apr-21 02:33N 35°28' E 139°42'0 0.0
2016-Apr-21 01:31N 35°28' E 139°42'0 0.0
2016-Apr-21 00:31N 35°28' E 139°42'0 0.0
2016-Apr-20 23:31N 35°28' E 139°42'0 0.0
2016-Apr-20 22:33N 35°28' E 139°42'2 2.0
2016-Apr-20 21:33N 35°27' E 139°43'0 0.0
2016-Apr-20 20:33N 35°27' E 139°43'0 0.0
2016-Apr-20 19:33N 35°27' E 139°43'0 0.0
2016-Apr-20 18:33N 35°27' E 139°43'0 0.0
2016-Apr-20 17:33N 35°27' E 139°43'0 0.0
2016-Apr-20 16:33N 35°27' E 139°43'0 0.0
2016-Apr-20 15:33N 35°27' E 139°43'0 0.0
2016-Apr-20 14:33N 35°27' E 139°43'0 0.0
2016-Apr-20 13:33N 35°27' E 139°43'0 0.0
2016-Apr-20 12:33N 35°27' E 139°43'0 0.0
2016-Apr-20 11:32N 35°27' E 139°43'0 0.0
2016-Apr-20 10:32N 35°27' E 139°43'0 0.0
2016-Apr-20 09:29N 35°27' E 139°43'0 0.0
2016-Apr-20 08:33N 35°27' E 139°43'1 0.6
2016-Apr-20 07:33N 35°26' E 139°43'6 0.4
2016-Apr-19 17:33N 35°24' E 139°50'0 0.0
2016-Apr-19 16:33N 35°24' E 139°50'0 0.0
2016-Apr-19 15:33N 35°24' E 139°50'0 0.0
2016-Apr-19 14:33N 35°24' E 139°50'0 0.1
2016-Apr-19 13:33N 35°24' E 139°50'0 0.0
2016-Apr-19 12:33N 35°24' E 139°50'0 0.0
2016-Apr-19 11:33N 35°24' E 139°50'0 0.0
2016-Apr-19 10:33N 35°24' E 139°50'0 0.1
2016-Apr-19 09:33N 35°24' E 139°50'0 0.1
2016-Apr-19 08:33N 35°24' E 139°50'0 0.0
2016-Apr-19 07:33N 35°24' E 139°50'0 0.0
2016-Apr-19 06:33N 35°24' E 139°50'0 0.0
2016-Apr-19 05:33N 35°24' E 139°50'0 0.0
2016-Apr-19 04:33N 35°24' E 139°50'0 0.0
2016-Apr-19 03:33N 35°24' E 139°50'0 0.0
2016-Apr-19 02:33N 35°24' E 139°50'1 0.8
2016-Apr-19 01:33N 35°24' E 139°49'8 7.8
2016-Apr-19 00:33N 35°17' E 139°45'10 9.5
2016-Apr-18 23:31N 35°07' E 139°45'245 8.9
2016-Apr-17 20:07N 33°59' E 135°00'5 9.7
2016-Apr-17 19:33N 34°04' E 134°60'10 9.9
2016-Apr-17 18:33N 34°14' E 134°59'9 7.7
2016-Apr-17 17:24N 34°22' E 135°04'3 0.5
2016-Apr-17 11:10N 34°22' E 135°08'0 0.0
2016-Apr-17 07:04N 34°22' E 135°08'0 0.1
2016-Apr-16 23:10N 34°21' E 135°08'0 0.0
2016-Apr-16 16:14N 34°22' E 135°08'1 1.0
2016-Apr-16 15:33N 34°22' E 135°08'9 9.6
2016-Apr-16 14:34N 34°32' E 135°05'  

Dump ship's entire track history